Time;durP1;ratioP1;P1;durP2;ratioP2;P2;SDS_P1;SDS_P2;PMS_P1;PMS_P2;Temp;Humidity;BMP_temperature;BMP_pressure;BME280_temperature;BME280_humidity;BME280_pressure;Samples;Min_cycle;Max_cycle;Signal;HPM_P1;HPM_P2
2021/03/19 00:01:23;;;;;;;13.57;6.55;;;-3274.80;93.90;;;;;;4989851;28;20040;-69
2021/03/19 00:03:49;;;;;;;12.18;6.78;;;-3274.80;93.90;;;;;;4989355;28;20388;-68
2021/03/19 00:06:15;;;;;;;12.55;6.82;;;-3274.70;94.00;;;;;;4989489;28;20062;-68
2021/03/19 00:08:40;;;;;;;13.45;6.05;;;-3274.70;94.00;;;;;;4991105;28;20562;-69
2021/03/19 00:11:06;;;;;;;12.73;6.35;;;-3274.70;94.10;;;;;;4990172;28;20048;-68
2021/03/19 00:13:32;;;;;;;11.20;6.32;;;-3274.70;94.00;;;;;;4991354;28;22684;-69
2021/03/19 00:15:57;;;;;;;11.50;6.22;;;-3274.70;94.00;;;;;;4990962;28;20057;-68
2021/03/19 00:18:23;;;;;;;11.15;6.80;;;-3274.70;93.90;;;;;;4991316;28;20049;-68
2021/03/19 00:20:49;;;;;;;12.02;5.97;;;-3274.70;94.00;;;;;;4989760;28;20033;-69
2021/03/19 00:23:15;;;;;;;12.13;5.97;;;-3274.60;93.90;;;;;;4991586;28;20041;-69
2021/03/19 00:25:42;;;;;;;10.65;5.63;;;-3274.60;93.90;;;;;;4989448;28;20025;-67
2021/03/19 00:28:13;;;;;;;10.88;5.90;;;-3274.60;93.90;;;;;;4991012;28;20037;-67
2021/03/19 00:30:41;;;;;;;10.90;5.88;;;-3274.50;93.80;;;;;;4989784;28;20109;-68
2021/03/19 00:33:06;;;;;;;12.23;6.50;;;-3274.50;93.80;;;;;;4990517;28;20026;-68
2021/03/19 00:35:32;;;;;;;12.55;5.38;;;-3274.50;93.80;;;;;;4999878;28;20048;-69
2021/03/19 00:37:57;;;;;;;13.77;5.72;;;-3274.50;93.70;;;;;;5002389;28;20495;-67
2021/03/19 00:40:24;;;;;;;13.23;6.57;;;-3274.50;93.80;;;;;;5002536;28;20466;-67
2021/03/19 00:42:50;;;;;;;12.93;5.88;;;-3274.50;93.90;;;;;;5005459;28;20437;-67
2021/03/19 00:45:19;;;;;;;12.85;6.70;;;-3274.50;94.10;;;;;;5000301;28;20036;-67
2021/03/19 00:47:44;;;;;;;13.55;6.40;;;-3274.50;94.20;;;;;;4997403;28;20022;-69
2021/03/19 00:50:21;;;;;;;20.38;6.97;;;-3274.40;94.10;;;;;;4989971;28;20084;-68
2021/03/19 00:52:46;;;;;;;11.85;5.95;;;-3274.40;94.20;;;;;;4990452;28;20061;-67
2021/03/19 00:55:12;;;;;;;12.25;6.70;;;-3274.40;94.30;;;;;;4990890;28;20117;-69
2021/03/19 00:57:39;;;;;;;13.15;6.72;;;-3274.50;94.30;;;;;;4994324;28;20472;-69
2021/03/19 01:00:10;;;;;;;13.40;6.45;;;-3274.40;94.20;;;;;;5001550;28;20034;-67
2021/03/19 01:02:36;;;;;;;12.05;6.50;;;-3274.40;94.30;;;;;;5003555;28;20022;-66
2021/03/19 01:05:04;;;;;;;13.02;6.30;;;-3274.40;94.30;;;;;;5002062;28;20029;-68
2021/03/19 01:07:29;;;;;;;13.77;6.45;;;-3274.40;94.50;;;;;;4998340;28;20644;-68
2021/03/19 01:09:55;;;;;;;11.63;6.85;;;-3274.40;94.30;;;;;;4999659;28;20034;-67
2021/03/19 01:12:21;;;;;;;12.48;6.32;;;-3274.40;94.30;;;;;;4998229;28;20556;-67
2021/03/19 01:14:46;;;;;;;11.35;5.28;;;-3274.40;94.30;;;;;;5006066;28;20103;-69
2021/03/19 01:17:12;;;;;;;14.02;5.82;;;-3274.30;94.30;;;;;;5000430;28;20397;-68
2021/03/19 01:19:38;;;;;;;12.32;5.40;;;-3274.30;94.20;;;;;;4989129;28;20041;-68
2021/03/19 01:22:04;;;;;;;14.05;6.75;;;-3274.30;94.20;;;;;;4988550;28;20096;-69
2021/03/19 01:24:29;;;;;;;14.13;6.78;;;-3274.30;94.20;;;;;;4989992;28;20045;-68
2021/03/19 01:26:55;;;;;;;15.25;6.95;;;-3274.30;94.30;;;;;;5002869;28;20105;-67
2021/03/19 01:29:20;;;;;;;12.40;6.72;;;-3274.30;94.30;;;;;;4996015;28;20022;-67
2021/03/19 01:31:46;;;;;;;14.88;5.82;;;-3274.30;94.40;;;;;;4999083;28;20026;-69
2021/03/19 01:34:12;;;;;;;13.23;6.88;;;-3274.30;94.50;;;;;;5004547;28;20112;-67
2021/03/19 01:36:38;;;;;;;13.27;6.47;;;-3274.30;94.50;;;;;;5003855;28;20041;-68
2021/03/19 01:39:04;;;;;;;14.60;7.15;;;-3274.30;94.50;;;;;;4994656;28;20030;-68
2021/03/19 01:41:30;;;;;;;15.82;6.85;;;-3274.30;94.50;;;;;;5001428;28;20174;-67
2021/03/19 01:44:16;;;;;;;15.70;6.53;;;-3274.30;94.50;;;;;;4997982;28;20414;-67
2021/03/19 01:47:19;;;;;;;15.52;6.90;;;-3274.20;94.60;;;;;;5005623;28;20068;-68
2021/03/19 01:50:22;;;;;;;14.48;6.60;;;-3274.20;94.60;;;;;;5001576;28;20030;-68
2021/03/19 01:53:24;;;;;;;15.38;6.97;;;-3274.20;94.70;;;;;;5002345;28;20025;-68
2021/03/19 01:56:28;;;;;;;17.05;6.88;;;-3274.20;94.70;;;;;;5000288;28;20037;-68
2021/03/19 01:59:31;;;;;;;10.95;5.72;;;-3274.20;94.70;;;;;;4997496;28;20138;-68
2021/03/19 02:02:33;;;;;;;10.10;5.50;;;-3274.20;94.70;;;;;;5002732;28;20022;-68
2021/03/19 02:05:36;;;;;;;14.45;6.47;;;-3274.20;94.80;;;;;;5006310;28;20029;-68
2021/03/19 02:08:39;;;;;;;17.65;7.47;;;-3274.10;94.70;;;;;;4997282;28;20030;-69
2021/03/19 02:11:42;;;;;;;14.25;6.93;;;-3274.10;94.80;;;;;;4985453;28;20984;-69
2021/03/19 02:14:45;;;;;;;12.73;6.57;;;-3274.00;94.80;;;;;;4989113;28;20040;-67
2021/03/19 02:17:48;;;;;;;18.65;7.15;;;-3274.00;94.80;;;;;;4987017;28;20034;-70
2021/03/19 02:20:51;;;;;;;21.40;7.75;;;-3274.00;94.80;;;;;;4998457;28;20656;-68
2021/03/19 02:23:54;;;;;;;15.57;8.10;;;-3274.00;94.90;;;;;;4989002;28;20033;-69
2021/03/19 02:27:08;;;;;;;19.20;7.85;;;-3274.00;95.00;;;;;;4984980;28;20037;-69
2021/03/19 02:30:11;;;;;;;26.67;7.25;;;-3274.00;95.00;;;;;;4967894;28;20031;-67
2021/03/19 02:32:36;;;;;;;16.30;8.25;;;-3274.00;95.10;;;;;;5004150;28;20034;-67
2021/03/19 02:35:14;;;;;;;20.38;8.13;;;-3274.00;95.10;;;;;;5007160;28;20061;-68
2021/03/19 02:37:40;;;;;;;23.88;9.27;;;-3274.00;95.10;;;;;;4989890;28;20026;-67
2021/03/19 02:40:10;;;;;;;18.08;8.57;;;-3273.90;95.10;;;;;;5003828;28;20092;-67
2021/03/19 02:42:36;;;;;;;23.58;9.20;;;-3273.90;95.10;;;;;;5003982;28;20034;-67
2021/03/19 02:45:02;;;;;;;21.00;8.13;;;-3274.00;95.20;;;;;;5004897;28;20022;-67
2021/03/19 02:47:28;;;;;;;18.08;8.20;;;-3273.90;95.10;;;;;;4994613;28;20088;-67
2021/03/19 02:49:54;;;;;;;21.10;8.57;;;-3273.90;95.10;;;;;;4986922;28;20100;-67
2021/03/19 02:52:22;;;;;;;23.45;9.48;;;-3273.90;95.10;;;;;;5007361;28;20030;-68
2021/03/19 02:54:49;;;;;;;24.95;10.02;;;-3273.90;95.20;;;;;;5004837;28;20037;-67
2021/03/19 02:57:14;;;;;;;20.90;8.77;;;-3273.90;95.20;;;;;;4982930;28;619300;-67
2021/03/19 02:59:40;;;;;;;29.15;10.30;;;-3273.90;95.20;;;;;;5002558;28;20095;-67
2021/03/19 03:02:06;;;;;;;28.55;10.23;;;-3274.00;95.30;;;;;;5004701;28;20033;-68
2021/03/19 03:04:32;;;;;;;25.95;9.77;;;-3274.00;95.30;;;;;;5002965;28;20618;-67
2021/03/19 03:06:58;;;;;;;23.83;10.52;;;-3274.00;95.40;;;;;;5003674;28;20084;-66
2021/03/19 03:09:30;;;;;;;27.08;11.10;;;-3273.90;95.30;;;;;;5002640;28;20080;-67
2021/03/19 03:11:57;;;;;;;25.73;10.27;;;-3273.90;95.30;;;;;;5006800;28;20506;-67
2021/03/19 03:14:26;;;;;;;20.70;10.48;;;-3273.90;95.30;;;;;;5004652;28;20026;-69
2021/03/19 03:16:53;;;;;;;26.08;9.40;;;-3273.90;95.40;;;;;;5005343;28;20034;-67
2021/03/19 03:19:22;;;;;;;24.98;10.23;;;-3273.90;95.40;;;;;;4997932;28;20064;-66
2021/03/19 03:21:48;;;;;;;27.35;10.40;;;-3273.90;95.40;;;;;;4998761;28;20033;-68
2021/03/19 03:24:15;;;;;;;29.42;11.32;;;-3273.90;95.40;;;;;;5005313;28;20026;-67
2021/03/19 03:26:42;;;;;;;25.27;10.80;;;-3273.90;95.40;;;;;;5001033;28;20104;-67
2021/03/19 03:29:09;;;;;;;22.58;9.93;;;-3273.80;95.40;;;;;;4991190;28;20058;-69
2021/03/19 03:31:38;;;;;;;24.83;11.10;;;-3273.80;95.30;;;;;;5006769;28;20030;-69
2021/03/19 03:34:04;;;;;;;31.00;10.93;;;-3273.80;95.40;;;;;;5006206;28;20018;-67
2021/03/19 03:36:30;;;;;;;24.85;11.00;;;-3273.80;95.40;;;;;;4990330;28;20530;-67
2021/03/19 03:38:56;;;;;;;26.88;10.65;;;-3273.80;95.40;;;;;;5003893;28;20522;-65
2021/03/19 03:41:25;;;;;;;28.73;10.93;;;-3273.70;95.30;;;;;;5004837;28;20835;-67
2021/03/19 03:43:51;;;;;;;32.97;11.75;;;-3273.80;95.40;;;;;;5004966;28;20100;-68
2021/03/19 03:46:21;;;;;;;29.77;11.02;;;-3273.80;95.40;;;;;;5004686;28;20438;-68
2021/03/19 03:48:47;;;;;;;36.88;11.15;;;-3273.80;95.40;;;;;;5002071;28;20026;-68
2021/03/19 03:51:13;;;;;;;29.80;11.43;;;-3273.80;95.50;;;;;;5002469;28;20091;-67
2021/03/19 03:53:40;;;;;;;24.10;11.07;;;-3273.80;95.50;;;;;;5003632;28;20022;-67
2021/03/19 03:56:08;;;;;;;33.35;12.85;;;-3273.70;95.40;;;;;;5002691;28;20026;-69
2021/03/19 03:58:34;;;;;;;33.65;12.48;;;-3273.70;95.40;;;;;;4986606;28;20121;-68
2021/03/19 04:01:00;;;;;;;32.55;11.63;;;-3273.80;95.60;;;;;;5004794;28;20122;-69
2021/03/19 04:03:25;;;;;;;30.73;11.90;;;-3273.70;95.50;;;;;;4979551;28;20030;-67
2021/03/19 04:05:51;;;;;;;34.28;12.48;;;-3273.70;95.50;;;;;;5003483;28;20042;-67
2021/03/19 04:08:20;;;;;;;35.80;13.30;;;-3273.70;95.60;;;;;;5005301;28;20032;-67
2021/03/19 04:10:48;;;;;;;30.15;12.15;;;-3273.70;95.70;;;;;;4998575;28;20101;-67
2021/03/19 04:13:14;;;;;;;32.22;11.93;;;-3273.70;95.60;;;;;;4997308;28;20034;-67
2021/03/19 04:15:40;;;;;;;38.20;13.27;;;-3273.70;95.60;;;;;;5006568;28;20440;-68
2021/03/19 04:18:13;;;;;;;33.85;12.70;;;-3273.60;95.70;;;;;;5003375;28;20053;-67
2021/03/19 04:20:40;;;;;;;31.90;11.55;;;-3273.60;95.60;;;;;;5006253;28;20907;-68
2021/03/19 04:23:06;;;;;;;30.02;11.55;;;-3273.50;95.60;;;;;;5001867;28;20033;-69
2021/03/19 04:25:32;;;;;;;26.98;11.52;;;-3273.50;95.60;;;;;;4989146;28;20029;-69
2021/03/19 04:28:04;;;;;;;43.35;13.90;;;-3273.50;95.60;;;;;;5001322;28;20022;-68
2021/03/19 04:30:38;;;;;;;36.47;13.60;;;-3273.50;95.70;;;;;;5005807;28;20080;-67
2021/03/19 04:33:04;;;;;;;38.15;14.07;;;-3273.50;95.70;;;;;;5005005;28;20033;-68
2021/03/19 04:35:32;;;;;;;43.22;15.48;;;-3273.50;95.70;;;;;;5010134;28;20022;-67
2021/03/19 04:38:02;;;;;;;36.90;13.60;;;-3273.50;95.80;;;;;;5006899;28;20033;-67
2021/03/19 04:40:28;;;;;;;38.08;14.68;;;-3273.50;95.70;;;;;;5007333;28;20084;-67
2021/03/19 04:42:55;;;;;;;46.90;15.80;;;-3273.50;95.80;;;;;;4996501;28;20043;-66
2021/03/19 04:45:22;;;;;;;53.95;16.05;;;-3273.50;95.90;;;;;;4991804;28;20026;-68
2021/03/19 04:47:48;;;;;;;46.08;16.15;;;-3273.60;95.90;;;;;;4994514;28;20034;-67
2021/03/19 04:50:15;;;;;;;44.15;15.80;;;-3273.60;95.90;;;;;;4991969;28;20034;-67
2021/03/19 04:52:41;;;;;;;50.78;17.23;;;-3273.60;95.90;;;;;;4999199;28;20398;-68
2021/03/19 04:55:08;;;;;;;50.95;16.67;;;-3273.60;95.90;;;;;;5008175;28;20017;-67
2021/03/19 04:57:35;;;;;;;52.22;17.75;;;-3273.60;95.90;;;;;;5009415;28;20033;-67
2021/03/19 05:00:00;;;;;;;44.70;17.17;;;-3273.60;95.90;;;;;;5006633;28;20032;-69
2021/03/19 05:02:38;;;;;;;51.63;18.15;;;-3273.60;95.90;;;;;;4997845;28;20686;-67
2021/03/19 05:05:06;;;;;;;51.53;17.27;;;-3273.50;95.80;;;;;;5007638;28;20118;-67
2021/03/19 05:07:32;;;;;;;50.55;17.48;;;-3273.60;95.90;;;;;;5007785;28;20506;-68
2021/03/19 05:09:57;;;;;;;42.95;16.60;;;-3273.60;95.90;;;;;;5005798;28;20029;-67
2021/03/19 05:12:23;;;;;;;64.93;20.23;;;-3273.60;95.90;;;;;;5000851;28;20049;-67
2021/03/19 05:14:49;;;;;;;52.47;18.67;;;-3273.60;95.90;;;;;;5007000;28;20029;-67
2021/03/19 05:17:15;;;;;;;51.88;19.65;;;-3273.60;95.80;;;;;;5007427;28;20026;-68
2021/03/19 05:19:41;;;;;;;37.97;17.00;;;-3273.50;95.70;;;;;;4998288;28;20126;-67
2021/03/19 05:22:07;;;;;;;49.55;18.23;;;-3273.50;95.70;;;;;;5008193;28;20503;-67
2021/03/19 05:24:34;;;;;;;49.33;18.48;;;-3273.50;95.70;;;;;;5003905;28;20045;-68
2021/03/19 05:27:00;;;;;;;62.03;20.65;;;-3273.50;95.70;;;;;;5008256;28;20045;-68
2021/03/19 05:29:25;;;;;;;55.95;19.67;;;-3273.50;95.70;;;;;;5001732;28;20030;-67
2021/03/19 05:31:51;;;;;;;58.90;21.00;;;-3273.60;95.80;;;;;;5005910;28;20031;-67
2021/03/19 05:34:17;;;;;;;67.18;21.88;;;-3273.50;95.80;;;;;;4991830;28;20483;-68
2021/03/19 05:36:43;;;;;;;61.42;21.42;;;-3273.60;95.80;;;;;;4990152;28;20139;-68
2021/03/19 05:39:10;;;;;;;84.63;25.40;;;-3273.60;95.80;;;;;;4990082;28;20033;-67
2021/03/19 05:41:38;;;;;;;72.72;24.02;;;-3273.60;95.80;;;;;;4989812;28;20026;-66
2021/03/19 05:44:13;;;;;;;70.60;25.02;;;-3273.60;95.80;;;;;;4999449;28;20056;-67
2021/03/19 05:46:44;;;;;;;78.93;27.77;;;-3273.50;95.80;;;;;;5004622;28;20083;-67
2021/03/19 05:49:10;;;;;;;81.93;26.80;;;-3273.60;95.90;;;;;;5001768;28;20026;-66
2021/03/19 05:52:00;;;;;;;75.15;26.95;;;-3273.60;95.80;;;;;;5001660;28;20040;-68
2021/03/19 05:54:30;;;;;;;71.60;25.40;;;-3273.60;95.80;;;;;;4986800;28;20112;-67
2021/03/19 05:57:04;;;;;;;84.65;27.95;;;-3273.60;95.80;;;;;;4986124;28;20038;-68
2021/03/19 05:59:48;;;;;;;74.63;28.00;;;-3273.70;95.80;;;;;;4985705;28;20037;-68
2021/03/19 06:02:27;;;;;;;83.05;27.77;;;-3273.70;95.90;;;;;;4991566;28;20465;-68
2021/03/19 06:05:19;;;;;;;82.80;30.92;;;-3273.80;95.80;;;;;;5005323;28;20427;-69
2021/03/19 06:07:53;;;;;;;87.50;30.30;;;-3273.90;95.80;;;;;;4992733;28;20065;-68
2021/03/19 06:10:23;;;;;;;95.18;31.80;;;-3274.00;95.80;;;;;;4994702;28;20226;-69
2021/03/19 06:12:51;;;;;;;88.53;33.08;;;-3274.10;95.80;;;;;;4989295;28;20045;-68
2021/03/19 06:15:30;;;;;;;90.18;35.03;;;-3274.20;95.80;;;;;;4984483;28;20037;-69
2021/03/19 06:17:59;;;;;;;87.10;33.60;;;-3274.40;95.90;;;;;;4984479;28;20030;-68
2021/03/19 06:20:26;;;;;;;90.80;33.40;;;-3274.50;95.90;;;;;;4984561;28;20072;-69
2021/03/19 06:22:59;;;;;;;77.95;32.33;;;-3274.50;95.80;;;;;;4984129;28;20670;-68
2021/03/19 06:25:27;;;;;;;103.90;36.10;;;-3274.60;95.80;;;;;;4984859;28;20063;-68
2021/03/19 06:28:03;;;;;;;84.10;33.58;;;-3274.70;95.80;;;;;;4983709;28;20464;-68
2021/03/19 06:30:29;;;;;;;81.93;34.63;;;-3274.80;95.80;;;;;;4985583;28;20026;-69
2021/03/19 06:33:06;;;;;;;90.22;35.90;;;-3274.90;95.80;;;;;;4983070;28;22265;-69
2021/03/19 06:35:36;;;;;;;96.72;38.25;;;-3275.00;95.80;;;;;;4984734;28;20029;-68
2021/03/19 06:38:29;;;;;;;102.35;37.33;;;-3275.10;95.90;;;;;;4983553;28;20395;-69
2021/03/19 06:41:12;;;;;;;110.63;39.67;;;-3275.30;95.90;;;;;;4993114;28;20398;-69
2021/03/19 06:43:38;;;;;;;98.88;38.65;;;-3275.40;96.00;;;;;;4981482;28;20748;-67
2021/03/19 06:46:20;;;;;;;110.05;40.53;;;-3275.50;96.00;;;;;;4982247;28;20223;-67
2021/03/19 06:48:54;;;;;;;84.97;37.25;;;-3275.70;96.10;;;;;;4993911;28;20034;-66
2021/03/19 06:51:33;;;;;;;81.10;35.08;;;-3275.90;96.20;;;;;;5005777;28;20402;-67
2021/03/19 06:54:09;;;;;;;78.03;34.05;;;-3276.00;96.10;;;;;;4996659;28;20510;-67
2021/03/19 06:56:38;;;;;;;86.95;35.33;;;-3276.20;96.00;;;;;;5001790;28;20063;-66
2021/03/19 06:59:24;;;;;;;76.28;34.25;;;-3276.40;95.90;;;;;;5003870;28;20038;-68
2021/03/19 07:01:50;;;;;;;49.67;24.77;;;-3276.60;95.80;;;;;;4998380;28;20089;-68
2021/03/19 07:04:28;;;;;;;66.45;30.63;;;0.00;95.70;;;;;;4993863;28;20495;-67
2021/03/19 07:06:57;;;;;;;62.30;30.60;;;0.10;95.60;;;;;;4996527;28;20030;-68
2021/03/19 07:09:28;;;;;;;40.30;23.58;;;0.40;95.70;;;;;;4998003;28;20116;-68
2021/03/19 07:12:19;;;;;;;51.05;24.17;;;0.30;95.20;;;;;;5000455;28;20036;-70
2021/03/19 07:15:17;;;;;;;84.63;33.70;;;0.50;95.00;;;;;;4996905;28;20034;-68
2021/03/19 07:17:54;;;;;;;49.10;21.80;;;0.80;95.20;;;;;;4985471;28;20033;-67
2021/03/19 07:20:40;;;;;;;39.38;21.67;;;0.80;94.70;;;;;;5012207;28;20367;-68
2021/03/19 07:23:28;;;;;;;35.60;19.00;;;0.80;94.60;;;;;;4998293;28;20096;-68
2021/03/19 07:26:17;;;;;;;38.80;19.73;;;0.80;93.70;;;;;;5003199;28;20033;-68
2021/03/19 07:29:06;;;;;;;37.35;20.27;;;1.00;94.10;;;;;;5003223;28;20036;-68
2021/03/19 07:32:13;;;;;;;27.73;14.43;;;1.10;93.90;;;;;;5003407;28;20057;-69
2021/03/19 07:35:07;;;;;;;27.35;15.98;;;1.20;92.70;;;;;;5002417;28;20026;-68
2021/03/19 07:37:51;;;;;;;25.88;14.93;;;1.40;93.00;;;;;;4999699;28;20530;-68
2021/03/19 07:40:37;;;;;;;18.85;11.75;;;1.50;92.70;;;;;;5018980;28;20100;-67
2021/03/19 07:43:15;;;;;;;19.58;11.13;;;1.50;91.30;;;;;;4998327;28;20107;-67
2021/03/19 07:46:12;;;;;;;16.05;10.48;;;1.60;91.90;;;;;;5001959;28;20046;-68
2021/03/19 07:48:59;;;;;;;15.90;9.55;;;1.40;91.10;;;;;;4975595;28;20045;-68
2021/03/19 07:51:43;;;;;;;13.82;9.30;;;1.40;91.40;;;;;;5003041;28;20053;-69
2021/03/19 07:54:18;;;;;;;17.33;9.43;;;1.40;91.30;;;;;;4999008;28;20053;-69
2021/03/19 07:56:49;;;;;;;16.73;9.70;;;1.60;91.80;;;;;;4997490;28;20486;-67
2021/03/19 07:59:37;;;;;;;15.68;9.68;;;1.70;91.60;;;;;;4996198;28;20038;-67
2021/03/19 08:02:12;;;;;;;18.08;9.27;;;1.80;91.70;;;;;;5009781;28;20465;-68
2021/03/19 08:04:51;;;;;;;14.48;8.40;;;1.90;91.50;;;;;;4987977;28;20026;-68
2021/03/19 08:07:30;;;;;;;18.25;9.90;;;1.70;91.00;;;;;;4986718;28;20041;-68
2021/03/19 08:10:05;;;;;;;13.40;8.48;;;1.80;91.20;;;;;;4984900;28;20118;-68
2021/03/19 08:12:50;;;;;;;14.55;7.57;;;1.80;91.30;;;;;;4987367;28;20042;-69
2021/03/19 08:15:34;;;;;;;14.40;9.07;;;2.00;91.30;;;;;;4994818;28;20033;-68
2021/03/19 08:18:34;;;;;;;15.68;9.38;;;2.30;91.50;;;;;;5008185;28;20081;-68
2021/03/19 08:21:18;;;;;;;13.50;8.55;;;2.70;91.20;;;;;;5004894;28;20033;-68
2021/03/19 08:23:53;;;;;;;16.05;10.02;;;3.10;90.80;;;;;;4999045;28;20036;-67
2021/03/19 08:26:36;;;;;;;14.48;7.68;;;3.50;91.40;;;;;;4998640;28;20057;-67
2021/03/19 08:29:29;;;;;;;10.95;7.00;;;3.10;88.80;;;;;;5007253;28;20018;-68
2021/03/19 08:32:17;;;;;;;9.68;5.85;;;3.20;88.60;;;;;;5003065;28;20057;-68
2021/03/19 08:34:48;;;;;;;15.65;6.80;;;3.20;87.60;;;;;;5006304;28;20026;-68
2021/03/19 08:37:41;;;;;;;11.15;6.43;;;3.60;89.40;;;;;;5010178;28;20474;-68
2021/03/19 08:40:16;;;;;;;10.77;6.05;;;4.10;88.00;;;;;;4999422;28;20509;-68
2021/03/19 08:42:48;;;;;;;12.65;5.78;;;4.20;86.70;;;;;;5001072;28;20042;-69
2021/03/19 08:45:26;;;;;;;9.32;5.32;;;4.60;86.00;;;;;;5006401;28;20391;-68
2021/03/19 08:47:55;;;;;;;13.48;5.90;;;4.60;85.10;;;;;;5005778;28;20036;-67
2021/03/19 08:50:37;;;;;;;11.05;5.63;;;4.60;84.50;;;;;;5003163;28;20025;-68
2021/03/19 08:53:29;;;;;;;10.43;4.93;;;4.60;85.00;;;;;;5003440;28;20113;-66
2021/03/19 08:56:03;;;;;;;10.88;4.95;;;4.50;83.60;;;;;;5000072;28;20167;-68
2021/03/19 08:58:29;;;;;;;9.25;4.70;;;4.90;84.10;;;;;;5003722;28;20065;-68
2021/03/19 09:00:59;;;;;;;8.93;5.00;;;5.00;83.00;;;;;;5004370;28;20057;-68
2021/03/19 09:03:37;;;;;;;10.13;4.60;;;4.90;83.90;;;;;;4994946;28;20475;-68
2021/03/19 09:06:13;;;;;;;8.43;4.82;;;4.80;82.50;;;;;;4985238;28;20040;-67
2021/03/19 09:09:05;;;;;;;14.90;5.10;;;4.60;82.10;;;;;;5001936;28;20176;-67
2021/03/19 09:11:36;;;;;;;;;;;4.70;84.20;;;;;;5006254;28;20189;-68
2021/03/19 09:14:03;;;;;;;8.98;4.80;;;4.70;83.50;;;;;;5007958;28;19948;-68
2021/03/19 09:16:56;;;;;;;10.57;4.85;;;5.00;83.80;;;;;;5003253;28;20030;-67
2021/03/19 09:19:51;;;;;;;7.10;4.47;;;5.50;84.10;;;;;;4997667;28;20053;-69
2021/03/19 09:22:24;;;;;;;7.97;4.72;;;5.60;83.20;;;;;;4997810;28;20272;-68
2021/03/19 09:25:11;;;;;;;8.80;5.07;;;5.80;82.50;;;;;;4987764;28;20422;-68
2021/03/19 09:28:07;;;;;;;9.73;4.95;;;6.10;82.00;;;;;;4986684;28;20092;-68
2021/03/19 09:30:42;;;;;;;10.15;4.97;;;6.60;81.70;;;;;;4955000;28;20037;-68
2021/03/19 09:33:43;;;;;;;9.02;4.57;;;6.50;80.40;;;;;;4995966;28;20057;-69
2021/03/19 09:36:46;;;;;;;8.35;4.30;;;6.80;78.30;;;;;;5007176;28;20026;-68
2021/03/19 09:39:53;;;;;;;7.22;3.72;;;6.90;77.50;;;;;;5006347;28;20083;-69
2021/03/19 09:42:18;;;;;;;9.40;3.25;;;7.00;76.40;;;;;;5002635;28;20034;-68
2021/03/19 09:44:48;;;;;;;5.03;2.42;;;7.30;74.40;;;;;;5001595;28;20057;-67
2021/03/19 09:47:16;;;;;;;4.55;2.40;;;7.30;70.60;;;;;;4991721;28;20065;-68
2021/03/19 09:49:42;;;;;;;8.13;2.15;;;7.40;72.30;;;;;;4991121;28;20081;-69
2021/03/19 09:52:16;;;;;;;3.80;2.10;;;7.30;72.50;;;;;;4989635;28;20036;-69
2021/03/19 09:54:42;;;;;;;4.45;2.15;;;7.20;71.10;;;;;;4989338;28;20025;-68
2021/03/19 09:57:20;;;;;;;5.78;2.30;;;7.10;71.60;;;;;;4987915;28;20277;-68
2021/03/19 09:59:53;;;;;;;5.22;2.22;;;7.00;70.30;;;;;;4996796;28;20542;-67
2021/03/19 10:02:36;;;;;;;4.70;2.20;;;7.30;70.30;;;;;;4998167;28;20068;-69
2021/03/19 10:05:17;;;;;;;4.50;2.13;;;7.80;70.60;;;;;;4997290;28;20030;-69
2021/03/19 10:07:48;;;;;;;3.33;1.83;;;7.00;68.90;;;;;;4990488;28;20057;-68
2021/03/19 10:10:39;;;;;;;4.47;1.87;;;7.10;69.70;;;;;;4995644;28;20524;-67
2021/03/19 10:13:21;;;;;;;4.40;2.00;;;6.80;69.80;;;;;;4988635;28;20029;-68
2021/03/19 10:15:53;;;;;;;3.15;1.65;;;6.60;70.20;;;;;;4992797;28;20040;-69
2021/03/19 10:18:24;;;;;;;;;;;6.40;71.10;;;;;;4999689;28;20022;-70
2021/03/19 10:21:03;;;;;;;5.40;1.52;;;6.30;69.30;;;;;;5005758;28;19964;-68
2021/03/19 10:23:32;;;;;;;4.97;1.73;;;6.40;71.80;;;;;;5000950;28;20025;-67
2021/03/19 10:26:37;;;;;;;2.90;1.48;;;6.60;71.60;;;;;;5006560;28;20087;-69
2021/03/19 10:29:07;;;;;;;2.25;1.60;;;6.80;70.90;;;;;;4996089;28;20109;-68
2021/03/19 10:31:38;;;;;;;4.03;1.58;;;6.40;69.80;;;;;;5001154;28;20030;-70
2021/03/19 10:34:14;;;;;;;3.30;1.35;;;6.50;70.70;;;;;;5003890;28;20021;-67
2021/03/19 10:36:44;;;;;;;5.32;1.63;;;6.80;69.20;;;;;;5002898;28;20080;-68
2021/03/19 10:39:29;;;;;;;11.18;1.75;;;7.10;69.10;;;;;;4996703;28;20526;-67
2021/03/19 10:42:29;;;;;;;2.97;1.40;;;7.40;67.10;;;;;;5004061;28;20498;-67
2021/03/19 10:45:13;;;;;;;8.38;1.90;;;7.50;63.40;;;;;;5005293;28;20038;-68
2021/03/19 10:47:47;;;;;;;2.35;1.50;;;7.20;66.10;;;;;;5000758;28;20061;-67
2021/03/19 10:50:23;;;;;;;5.70;1.50;;;7.60;65.70;;;;;;4995477;28;20025;-68
2021/03/19 10:53:12;;;;;;;6.10;1.60;;;7.70;65.30;;;;;;4995261;28;20034;-67
2021/03/19 10:55:38;;;;;;;3.50;1.30;;;7.80;64.00;;;;;;5000515;28;20045;-66
2021/03/19 10:58:19;;;;;;;3.17;1.73;;;7.80;66.40;;;;;;4997398;28;20034;-68
2021/03/19 11:00:46;;;;;;;2.83;1.20;;;7.70;65.20;;;;;;5000641;28;20034;-67
2021/03/19 11:03:44;;;;;;;2.53;1.35;;;7.50;64.20;;;;;;5007343;28;20026;-67
2021/03/19 11:06:13;;;;;;;2.15;1.05;;;7.30;63.90;;;;;;5006116;28;20208;-67
2021/03/19 11:08:39;;;;;;;2.45;1.08;;;7.00;66.00;;;;;;4998019;28;20254;-67
2021/03/19 11:11:05;;;;;;;3.95;1.00;;;7.00;66.50;;;;;;4992697;28;20026;-67
2021/03/19 11:13:34;;;;;;;2.90;1.17;;;7.20;65.70;;;;;;5003388;28;20521;-67
2021/03/19 11:16:04;;;;;;;3.03;1.00;;;7.30;65.80;;;;;;5000218;28;20394;-68
2021/03/19 11:18:37;;;;;;;3.92;1.33;;;7.40;65.70;;;;;;4997400;28;20039;-67
2021/03/19 11:21:06;;;;;;;2.42;0.93;;;7.80;64.90;;;;;;5000481;28;20096;-67
2021/03/19 11:23:41;;;;;;;1.30;0.82;;;7.70;62.60;;;;;;5005278;28;20116;-67
2021/03/19 11:26:24;;;;;;;4.53;1.20;;;7.40;62.30;;;;;;5001522;28;20112;-67
2021/03/19 11:29:05;;;;;;;3.45;1.02;;;7.40;63.70;;;;;;5002097;28;20034;-67
2021/03/19 11:31:30;;;;;;;1.30;0.88;;;7.00;62.80;;;;;;4982384;28;20375;-67
2021/03/19 11:34:01;;;;;;;2.00;0.98;;;7.10;64.20;;;;;;4999206;28;20045;-67
2021/03/19 11:36:48;;;;;;;2.42;1.20;;;7.20;64.30;;;;;;5002964;28;20045;-67
2021/03/19 11:39:22;;;;;;;3.67;1.02;;;7.00;64.30;;;;;;5003969;28;20140;-67
2021/03/19 11:41:48;;;;;;;2.53;0.73;;;7.20;64.30;;;;;;5005758;28;20067;-67
2021/03/19 11:44:16;;;;;;;1.95;0.98;;;7.30;64.90;;;;;;4990116;28;20030;-67
2021/03/19 11:46:41;;;;;;;1.58;0.63;;;8.10;64.40;;;;;;4987287;28;20030;-69
2021/03/19 11:49:09;;;;;;;3.33;0.68;;;8.50;61.10;;;;;;4992808;28;20517;-67
2021/03/19 11:51:39;;;;;;;3.72;0.70;;;9.10;57.60;;;;;;4993861;28;20165;-69
2021/03/19 11:54:08;;;;;;;1.08;0.60;;;9.10;56.80;;;;;;4997234;28;20056;-70
2021/03/19 11:56:34;;;;;;;2.72;0.65;;;9.40;52.70;;;;;;4994471;28;20045;-68
2021/03/19 11:59:00;;;;;;;1.67;0.40;;;9.50;56.40;;;;;;5000960;28;20388;-68
2021/03/19 12:01:28;;;;;;;1.58;0.77;;;10.50;51.70;;;;;;5004081;28;20069;-69
2021/03/19 12:03:55;;;;;;;1.25;0.60;;;11.00;50.70;;;;;;5004707;28;20030;-69
2021/03/19 12:06:24;;;;;;;0.52;0.40;;;10.60;49.40;;;;;;5003352;28;20101;-69
2021/03/19 12:08:50;;;;;;;1.40;0.60;;;10.80;49.20;;;;;;5007064;28;20036;-70
2021/03/19 12:11:26;;;;;;;1.73;0.60;;;10.00;49.60;;;;;;5004902;28;20486;-70
2021/03/19 12:13:55;;;;;;;3.22;0.50;;;9.50;54.00;;;;;;5005140;28;20057;-69
2021/03/19 12:16:21;;;;;;;1.83;0.77;;;9.10;54.10;;;;;;5002178;28;20030;-68
2021/03/19 12:18:47;;;;;;;0.60;0.50;;;8.20;56.20;;;;;;5002271;28;20026;-68
2021/03/19 12:21:13;;;;;;;1.42;0.60;;;7.90;59.40;;;;;;5001362;28;20033;-68
2021/03/19 12:23:38;;;;;;;1.38;0.52;;;7.50;63.90;;;;;;5003937;28;20056;-68
2021/03/19 12:26:04;;;;;;;4.53;0.85;;;7.30;65.40;;;;;;4999868;28;20543;-68
2021/03/19 12:28:30;;;;;;;2.50;0.60;;;7.20;65.70;;;;;;5001564;28;20113;-68
2021/03/19 12:30:58;;;;;;;2.22;0.90;;;7.50;65.20;;;;;;5004577;28;20475;-67
2021/03/19 12:33:29;;;;;;;1.88;0.85;;;7.60;63.20;;;;;;5002294;28;20022;-67
2021/03/19 12:35:54;;;;;;;0.93;0.55;;;8.30;62.80;;;;;;5005615;28;20017;-68
2021/03/19 12:38:20;;;;;;;1.55;0.70;;;8.60;58.90;;;;;;4999751;28;20546;-68
2021/03/19 12:40:47;;;;;;;2.95;0.98;;;8.30;58.10;;;;;;5004232;28;20401;-69
2021/03/19 12:43:13;;;;;;;3.65;0.80;;;8.50;56.90;;;;;;5001986;28;20040;-68
2021/03/19 12:45:40;;;;;;;3.35;0.60;;;8.30;56.80;;;;;;5005197;28;20876;-69
2021/03/19 12:48:07;;;;;;;2.13;0.55;;;8.00;57.20;;;;;;5003667;28;20036;-68
2021/03/19 12:50:33;;;;;;;1.75;0.60;;;7.80;57.70;;;;;;5003493;28;20073;-69
2021/03/19 12:53:00;;;;;;;1.85;0.60;;;7.40;58.10;;;;;;5005324;28;20022;-68
2021/03/19 12:55:27;;;;;;;2.22;0.60;;;7.10;61.60;;;;;;5002864;28;20144;-69
2021/03/19 12:57:52;;;;;;;5.82;0.90;;;7.00;61.80;;;;;;4996534;28;20081;-68
2021/03/19 13:00:24;;;;;;;3.22;0.80;;;7.30;61.10;;;;;;5004740;28;20467;-68